Makawao, Hawaii
Current Conditions -  °F | °C
As of 11:54 AM on Saturday 20 Dec 2014 (Local Time) from PHOG Reporting Station
Few Clouds Few Clouds  
Wind Chill: 84°   Ceiling: Unl
Heat Index: 84°   Visibility: 10mi
Dew Point: 61°   Wind: 7mph
Humidity: 46%   Direction: 340°NNW
Pressure: 30.01"   Gusts: NA
Location:  20.85°N, 156.31°W
Report Text: PHOG 202154Z 34006KT 10SM FEW050 29/16 A3001 RMK AO2 SLP168 T02890161 $
Loading
Personal Weather Stations






























Interactive Weather Map New forecast layout! Learn more

10-Day Weather Forecast

Advertisements
Track Severe Weather on mobile